createdAt,value
2016-05-18T00:00:42.916Z,10.53
2016-05-18T00:01:43.105Z,10.61
2016-05-18T00:02:56.844Z,10.61
2016-05-18T00:03:42.939Z,10.61
2016-05-18T00:04:43.114Z,10.53
2016-05-18T00:06:57.072Z,10.56
2016-05-18T00:07:43.013Z,10.6
2016-05-18T00:08:42.921Z,10.55
2016-05-18T00:09:43.127Z,10.53
2016-05-18T00:10:42.943Z,10.63
2016-05-18T00:11:42.946Z,10.66
2016-05-18T00:12:42.807Z,10.55
2016-05-18T00:13:43.169Z,10.52
2016-05-18T00:14:57.016Z,10.53
2016-05-18T00:15:42.018Z,10.55
2016-05-18T00:16:42.959Z,10.63
2016-05-18T00:17:43.571Z,10.52
2016-05-18T00:18:43.387Z,10.59
2016-05-18T00:19:57.029Z,10.55
2016-05-18T00:20:42.876Z,10.63
2016-05-18T00:21:43.425Z,10.6
2016-05-18T00:22:43.147Z,10.59
2016-05-18T00:23:43.400Z,10.53
2016-05-18T00:25:42.999Z,10.68
2016-05-18T00:26:43.423Z,10.61
2016-05-18T00:27:42.863Z,10.66
2016-05-18T00:29:42.681Z,10.6
2016-05-18T00:30:42.997Z,10.66
2016-05-18T00:31:42.858Z,10.67
2016-05-18T00:32:43.206Z,10.64
2016-05-18T00:33:43.223Z,10.55
2016-05-18T00:34:42.850Z,10.66
2016-05-18T00:35:43.447Z,10.71
2016-05-18T00:36:42.997Z,10.63
2016-05-18T00:37:43.624Z,10.6
2016-05-18T00:38:43.222Z,10.64
2016-05-18T00:39:43.052Z,10.56
2016-05-18T00:40:43.257Z,10.59
2016-05-18T00:41:42.589Z,10.61
2016-05-18T00:42:43.029Z,10.56
2016-05-18T00:43:43.031Z,10.56
2016-05-18T00:44:43.472Z,10.59
2016-05-18T00:45:43.052Z,10.59
2016-05-18T00:46:43.055Z,10.59
2016-05-18T00:47:43.245Z,10.56
2016-05-18T00:48:43.279Z,10.56
2016-05-18T00:49:43.078Z,10.55
2016-05-18T00:50:43.488Z,10.56
2016-05-18T00:51:43.303Z,10.48
2016-05-18T00:52:42.837Z,10.42
2016-05-18T00:53:43.059Z,10.51
2016-05-18T00:54:43.092Z,10.42
2016-05-18T00:55:57.142Z,10.38
2016-05-18T00:56:43.128Z,10.42
2016-05-18T00:57:43.522Z,10.38
2016-05-18T00:58:43.494Z,10.44
2016-05-18T00:59:43.122Z,10.44
2016-05-18T01:00:43.124Z,10.33
2016-05-18T01:01:43.330Z,10.38
2016-05-18T01:02:43.301Z,10.41
2016-05-18T01:03:57.178Z,10.32
2016-05-18T01:04:42.947Z,10.36
2016-05-18T01:05:43.122Z,10.34
2016-05-18T01:06:43.125Z,10.38
2016-05-18T01:07:43.689Z,10.34
2016-05-18T01:08:42.536Z,10.3
2016-05-18T01:10:43.166Z,10.38
2016-05-18T01:11:43.138Z,10.36
2016-05-18T01:12:42.999Z,10.4
2016-05-18T01:13:43.144Z,10.4
2016-05-18T01:14:43.162Z,10.29
2016-05-18T01:15:43.242Z,10.4
2016-05-18T01:16:43.245Z,10.36
2016-05-18T01:17:43.357Z,10.3
2016-05-18T01:18:43.157Z,10.34
2016-05-18T01:20:43.819Z,10.33
2016-05-18T01:21:43.165Z,10.34
2016-05-18T01:22:43.324Z,10.38
2016-05-18T01:23:57.279Z,10.36
2016-05-18T01:24:43.609Z,10.4
2016-05-18T01:25:43.192Z,10.38
2016-05-18T01:26:43.225Z,10.3
2016-05-18T01:27:42.697Z,10.3
2016-05-18T01:28:43.184Z,10.3
2016-05-18T01:29:43.405Z,10.36
2016-05-18T01:30:43.376Z,10.3
2016-05-18T01:31:43.222Z,10.33
2016-05-18T01:32:43.195Z,10.33
2016-05-18T01:33:43.416Z,10.33
2016-05-18T01:34:43.184Z,10.25
2016-05-18T01:35:43.264Z,10.34
2016-05-18T01:36:43.064Z,10.27
2016-05-18T01:37:57.474Z,10.17
2016-05-18T01:38:43.241Z,10.12
2016-05-18T01:39:43.244Z,10.12
2016-05-18T01:40:43.450Z,10.09
2016-05-18T01:41:43.219Z,10.07
2016-05-18T01:42:43.080Z,10.01
2016-05-18T01:43:43.208Z,10.02
2016-05-18T01:44:43.227Z,9.97
2016-05-18T01:45:43.088Z,9.94
2016-05-18T01:46:43.466Z,9.86
2016-05-18T01:47:43.251Z,9.93
2016-05-18T01:48:43.675Z,9.87
2016-05-18T01:49:57.365Z,9.83
2016-05-18T01:50:57.305Z,9.81
2016-05-18T01:51:43.292Z,9.83
2016-05-18T01:52:43.232Z,9.84
2016-05-18T01:54:43.253Z,9.81
2016-05-18T01:55:43.272Z,9.72
2016-05-18T01:56:43.493Z,9.75
2016-05-18T01:57:43.262Z,9.68
2016-05-18T01:58:43.467Z,9.72
2016-05-18T01:59:43.298Z,9.65
2016-05-18T02:00:43.114Z,9.72
2016-05-18T02:01:43.475Z,9.71
2016-05-18T02:02:43.479Z,9.72
2016-05-18T02:03:43.325Z,9.66
2016-05-18T02:04:43.296Z,9.69
2016-05-18T02:05:43.283Z,9.71
2016-05-18T02:06:43.302Z,9.74
2016-05-18T02:07:44.585Z,9.64
2016-05-18T02:08:43.791Z,9.65
2016-05-18T02:09:57.575Z,9.71
2016-05-18T02:10:43.530Z,9.66
2016-05-18T02:11:43.331Z,9.69
2016-05-18T02:12:43.318Z,9.69
2016-05-18T02:13:43.163Z,9.71
2016-05-18T02:14:43.370Z,9.66
2016-05-18T02:15:43.513Z,9.74
2016-05-18T02:16:43.297Z,9.68
2016-05-18T02:17:43.315Z,9.69
2016-05-18T02:18:43.568Z,9.65
2016-05-18T02:20:43.307Z,9.68
2016-05-18T02:21:43.013Z,9.66
2016-05-18T02:22:43.766Z,9.69
2016-05-18T02:23:43.316Z,9.69
2016-05-18T02:24:43.318Z,9.68
2016-05-18T02:25:43.524Z,9.65
2016-05-18T02:26:43.324Z,9.66
2016-05-18T02:27:43.217Z,9.69
2016-05-18T02:28:57.407Z,9.75
2016-05-18T02:29:43.066Z,9.76
2016-05-18T02:30:43.273Z,9.72
2016-05-18T02:31:43.353Z,9.74
2016-05-18T02:32:43.340Z,9.78
2016-05-18T02:33:43.374Z,9.78
2016-05-18T02:34:43.361Z,9.83
2016-05-18T02:35:43.583Z,9.79
2016-05-18T02:36:42.898Z,9.78
2016-05-18T02:37:43.603Z,9.81
2016-05-18T02:38:43.606Z,9.84
2016-05-18T02:39:43.406Z,9.87
2016-05-18T02:40:43.752Z,9.87
2016-05-18T02:41:43.349Z,9.86
2016-05-18T02:42:43.399Z,9.89
2016-05-18T02:43:43.432Z,9.96
2016-05-18T02:44:43.372Z,9.93
2016-05-18T02:46:43.363Z,9.94
2016-05-18T02:48:43.602Z,10.01
2016-05-18T02:49:43.620Z,9.96
2016-05-18T02:50:42.921Z,10.01
2016-05-18T02:51:43.126Z,10.02
2016-05-18T02:52:43.862Z,9.97
2016-05-18T02:53:43.507Z,9.99
2016-05-18T02:54:43.399Z,9.93
2016-05-18T02:55:43.417Z,10.01
2016-05-18T02:56:43.639Z,9.96
2016-05-18T02:57:43.642Z,9.94
2016-05-18T02:58:43.676Z,9.84
2016-05-18T02:59:43.444Z,9.83
2016-05-18T03:02:43.014Z,9.81
2016-05-18T03:03:43.439Z,9.81
2016-05-18T03:04:43.473Z,9.78
2016-05-18T03:05:43.429Z,9.81
2016-05-18T03:06:43.431Z,9.83
2016-05-18T03:07:43.450Z,9.78
2016-05-18T03:08:57.936Z,9.74
2016-05-18T03:09:43.299Z,9.66
2016-05-18T03:10:43.520Z,9.74
2016-05-18T03:11:43.460Z,9.72
2016-05-18T03:12:43.855Z,9.71
2016-05-18T03:13:43.466Z,9.74
2016-05-18T03:14:43.280Z,9.71
2016-05-18T03:15:43.455Z,9.66
2016-05-18T03:16:43.880Z,9.58
2016-05-18T03:17:43.868Z,9.51
2016-05-18T09:03:53.582Z,19.28
2016-05-18T09:04:19.535Z,19.28
2016-05-18T09:05:19.538Z,19.31
2016-05-18T09:07:19.199Z,19.44
2016-05-18T09:08:19.607Z,19.43
2016-05-18T09:09:19.360Z,19.41
2016-05-18T09:10:19.410Z,19.5
2016-05-18T09:11:18.944Z,19.46
2016-05-18T09:12:19.665Z,19.59
2016-05-18T09:13:19.434Z,19.5
2016-05-18T09:14:19.484Z,19.58
2016-05-18T09:15:19.908Z,19.56
2016-05-18T09:16:19.489Z,19.61
2016-05-18T09:17:19.507Z,19.65
2016-05-18T09:18:19.698Z,19.66
2016-05-18T09:19:19.512Z,19.65
2016-05-18T09:20:19.515Z,19.77
2016-05-18T09:21:19.517Z,19.77
2016-05-18T09:22:19.536Z,19.68
2016-05-18T09:23:19.789Z,19.76
2016-05-18T09:24:19.558Z,19.78
2016-05-18T09:25:19.981Z,19.78
2016-05-18T09:26:19.578Z,19.86
2016-05-18T09:27:19.612Z,19.84
2016-05-18T09:28:19.646Z,19.86
2016-05-18T09:29:19.867Z,19.87
2016-05-18T09:30:19.479Z,19.92
2016-05-18T09:31:19.669Z,19.92
2016-05-18T09:32:19.532Z,19.95
2016-05-18T09:33:19.722Z,19.91
2016-05-18T09:34:20.130Z,19.95
2016-05-18T09:35:19.727Z,19.84
2016-05-18T09:36:19.715Z,19.92
2016-05-18T09:37:19.592Z,19.8
2016-05-18T09:38:19.641Z,19.83
2016-05-18T09:39:19.754Z,19.91
2016-05-18T09:40:19.788Z,19.88
2016-05-18T09:41:19.868Z,19.76
2016-05-18T09:42:19.809Z,19.86
2016-05-18T09:43:19.811Z,19.86
2016-05-18T09:44:19.829Z,19.86
2016-05-18T09:45:20.067Z,19.81
2016-05-18T09:46:19.882Z,19.86
2016-05-18T09:47:19.884Z,19.74
2016-05-18T09:48:19.887Z,19.8
2016-05-18T09:49:19.734Z,19.83
2016-05-18T09:50:19.908Z,19.83
2016-05-18T09:51:19.926Z,19.81
2016-05-18T09:52:19.929Z,19.8
2016-05-18T09:53:19.839Z,19.77
2016-05-18T09:54:19.997Z,19.84
2016-05-18T09:55:19.984Z,19.78
2016-05-18T09:56:19.487Z,19.71
2016-05-18T09:58:20.039Z,19.66
2016-05-18T09:59:19.870Z,19.63
2016-05-18T10:00:19.872Z,19.58
2016-05-18T10:01:20.063Z,19.55
2016-05-18T10:02:20.410Z,19.56
2016-05-18T10:03:20.272Z,19.44
2016-05-18T10:04:20.274Z,19.41
2016-05-18T10:05:20.527Z,19.39
2016-05-18T10:06:20.389Z,19.43
2016-05-18T10:07:20.360Z,19.41
2016-05-18T10:08:20.582Z,19.41
2016-05-18T10:09:20.350Z,19.41
2016-05-18T10:10:19.962Z,19.41
2016-05-18T10:11:20.543Z,19.5
2016-05-18T10:12:20.343Z,19.47
2016-05-18T10:13:20.329Z,19.41
2016-05-18T10:14:20.567Z,19.59
2016-05-18T10:15:20.663Z,19.5
2016-05-18T10:16:20.415Z,19.56
2016-05-18T10:17:20.106Z,19.58
2016-05-18T10:18:20.765Z,19.65
2016-05-18T10:19:20.487Z,19.65
2016-05-18T10:20:20.598Z,19.68
2016-05-18T10:21:20.679Z,19.71
2016-05-18T10:22:20.448Z,19.78
2016-05-18T10:23:20.559Z,19.71
2016-05-18T10:24:20.703Z,19.8
2016-05-18T10:25:20.659Z,19.91
2016-05-18T10:26:20.458Z,19.96
2016-05-18T10:27:20.414Z,20.02
2016-05-18T10:28:34.716Z,20.23
2016-05-18T10:29:20.747Z,20.28
2016-05-18T10:30:20.656Z,20.35
2016-05-18T10:31:21.128Z,20.5
2016-05-18T10:32:20.491Z,20.54
2016-05-18T10:33:20.618Z,20.73
2016-05-18T10:34:21.324Z,20.74
2016-05-18T10:35:20.811Z,20.8
2016-05-18T10:36:20.689Z,20.77
2016-05-18T10:37:20.504Z,20.8
2016-05-18T10:38:20.490Z,20.98
2016-05-18T10:39:20.837Z,20.95
2016-05-18T10:40:20.793Z,20.94
2016-05-18T10:41:20.655Z,20.95
2016-05-18T10:42:20.736Z,20.95
2016-05-18T10:43:20.613Z,20.99
2016-05-18T10:44:20.398Z,20.99
2016-05-18T10:45:20.901Z,21.06
2016-05-18T10:47:20.999Z,21.06
2016-05-18T10:48:35.021Z,20.99
2016-05-18T10:49:21.037Z,20.99
2016-05-18T10:50:20.664Z,21.12
2016-05-18T10:51:20.759Z,21.13
2016-05-18T10:52:20.873Z,21.14
2016-05-18T10:53:20.875Z,21.17
2016-05-18T10:54:20.987Z,21.19
2016-05-18T10:55:20.974Z,21.21
2016-05-18T10:56:21.070Z,21.32
2016-05-18T10:57:21.198Z,21.34
2016-05-18T10:58:21.107Z,21.35
2016-05-18T10:59:21.359Z,21.4
2016-05-18T11:00:21.003Z,21.37
2016-05-18T11:01:21.194Z,21.49
2016-05-18T11:02:21.072Z,21.62
2016-05-18T11:03:20.917Z,21.72
2016-05-18T11:04:21.123Z,21.67
2016-05-18T11:05:21.125Z,21.67
2016-05-18T11:06:21.253Z,21.69
2016-05-18T11:07:20.975Z,21.68
2016-05-18T11:08:21.166Z,21.67
2016-05-18T11:09:21.168Z,21.68
2016-05-18T11:10:21.217Z,21.64
2016-05-18T11:11:21.564Z,21.65
2016-05-18T11:12:21.285Z,21.62
2016-05-18T11:13:21.007Z,21.54
2016-05-18T11:14:21.400Z,21.52
2016-05-18T11:15:21.340Z,21.43
2016-05-18T11:16:21.389Z,21.37
2016-05-18T11:17:21.377Z,21.34
2016-05-18T11:18:21.004Z,21.28
2016-05-18T11:19:21.726Z,21.27
2016-05-18T11:20:21.369Z,21.17
2016-05-18T11:21:21.465Z,21.14
2016-05-18T11:22:21.578Z,21.14
2016-05-18T11:23:21.299Z,21.16
2016-05-18T11:24:21.551Z,21.06
2016-05-18T11:25:21.414Z,20.98
2016-05-18T11:26:21.417Z,20.99
2016-05-18T11:27:21.434Z,20.95
2016-05-18T11:28:21.251Z,20.82
2016-05-18T11:29:21.581Z,20.79
2016-05-18T11:30:21.458Z,20.8
2016-05-18T11:31:21.555Z,20.74
2016-05-18T11:32:21.761Z,20.76
2016-05-18T11:33:21.685Z,20.62
2016-05-18T11:34:21.657Z,20.64
2016-05-18T11:35:21.753Z,20.52
2016-05-18T11:36:21.678Z,20.55
2016-05-18T11:37:21.743Z,20.55
2016-05-18T11:38:21.699Z,20.54
2016-05-18T11:39:53.298Z,20.52
2016-05-18T11:40:21.704Z,20.55
2016-05-18T11:41:21.832Z,20.51
2016-05-18T11:42:21.772Z,20.43
2016-05-18T11:43:21.697Z,20.51
2016-05-18T11:44:21.809Z,20.55
2016-05-18T11:45:21.733Z,20.57
2016-05-18T11:46:21.767Z,20.54
2016-05-18T11:47:21.785Z,20.55
2016-05-18T11:48:21.757Z,20.55
2016-05-18T11:49:21.759Z,20.57
2016-05-18T11:50:21.810Z,20.58
2016-05-18T11:51:21.843Z,20.76
2016-05-18T11:52:21.814Z,20.7
2016-05-18T11:53:22.037Z,20.7
2016-05-18T11:54:22.023Z,20.82
2016-05-18T11:55:21.932Z,20.76
2016-05-18T11:56:22.106Z,20.84
2016-05-18T11:57:21.844Z,20.79
2016-05-18T11:58:21.909Z,20.84
2016-05-18T11:59:21.942Z,20.98
2016-05-18T12:00:22.008Z,20.99
2016-05-18T12:01:21.964Z,20.99
2016-05-18T12:02:22.091Z,21.01
2016-05-18T12:03:21.922Z,21.01
2016-05-18T12:04:21.863Z,21.03
2016-05-18T12:05:21.975Z,21.16
2016-05-18T12:06:22.258Z,21.01
2016-05-18T12:07:22.371Z,21.16
2016-05-18T12:08:22.092Z,21.17
2016-05-18T12:09:21.876Z,21.25
2016-05-18T12:10:22.035Z,21.25
2016-05-18T12:11:22.288Z,21.29
2016-05-18T12:12:22.103Z,21.37
2016-05-18T12:13:22.230Z,21.35
2016-05-18T12:14:22.608Z,21.37
2016-05-18T12:15:22.438Z,21.37
2016-05-18T12:16:22.238Z,21.43
2016-05-18T12:17:21.960Z,21.31
2016-05-18T12:18:22.134Z,21.46
2016-05-18T12:19:22.419Z,21.47
2016-05-18T12:20:22.390Z,21.5
2016-05-18T12:21:22.439Z,21.49
2016-05-18T12:22:22.193Z,21.49
2016-05-18T12:23:23.398Z,21.64
2016-05-18T12:24:22.291Z,21.68
2016-05-18T12:25:22.170Z,21.69
2016-05-18T12:26:22.109Z,21.67
2016-05-18T12:27:22.346Z,21.75
2016-05-18T12:28:22.364Z,21.77
2016-05-18T12:29:22.289Z,21.84
2016-05-18T12:30:22.276Z,21.84
2016-05-18T12:31:22.466Z,21.8
2016-05-18T12:32:22.375Z,21.91
2016-05-18T12:33:22.441Z,21.86
2016-05-18T12:34:22.380Z,21.98
2016-05-18T12:35:22.540Z,21.94
2016-05-18T12:36:22.636Z,22
2016-05-18T12:37:22.685Z,21.96
2016-05-18T12:38:22.736Z,22.09
2016-05-18T12:39:22.488Z,22.18
2016-05-18T12:40:22.052Z,22.12
2016-05-18T12:41:22.790Z,22.17
2016-05-18T12:42:22.558Z,22.15
2016-05-18T12:43:22.624Z,22.27
2016-05-18T12:44:22.657Z,22.24
2016-05-18T12:45:22.644Z,22.2
2016-05-18T12:46:22.538Z,22.22
2016-05-18T12:47:22.572Z,22.36
2016-05-18T12:48:22.699Z,22.33
2016-05-18T12:49:22.670Z,22.37
2016-05-18T12:50:22.721Z,22.39
2016-05-18T12:51:22.598Z,22.36
2016-05-18T12:52:22.929Z,22.33
2016-05-18T12:53:22.776Z,22.39
2016-05-18T12:54:22.575Z,22.42
2016-05-18T12:55:22.531Z,22.39
2016-05-18T12:56:23.112Z,22.43
2016-05-18T12:57:23.459Z,22.37
2016-05-18T12:58:22.976Z,22.47
2016-05-18T12:59:22.917Z,22.42
2016-05-18T13:00:22.919Z,22.42
2016-05-18T13:01:22.687Z,22.43
2016-05-18T13:02:22.675Z,22.47
2016-05-18T13:03:22.772Z,22.37
2016-05-18T13:04:22.680Z,22.39
2016-05-18T13:05:23.152Z,22.42
2016-05-18T13:06:23.092Z,22.36
2016-05-18T13:07:23.470Z,22.37
2016-05-18T13:08:23.238Z,22.28
2016-05-18T13:09:23.006Z,22.35
2016-05-18T13:10:23.056Z,22.24
2016-05-18T13:11:22.918Z,22.3
2016-05-18T13:12:22.874Z,22.3
2016-05-18T13:13:22.829Z,22.22
2016-05-18T13:14:22.847Z,22.25
2016-05-18T13:15:22.850Z,22.2
2016-05-18T13:16:22.885Z,22.17
2016-05-18T13:17:22.887Z,22.09
2016-05-18T13:18:22.921Z,22.09
2016-05-18T13:19:22.908Z,22.07
2016-05-18T13:20:23.129Z,22
2016-05-18T13:21:22.788Z,22.03
2016-05-18T13:22:22.979Z,21.96
2016-05-18T13:23:25.684Z,21.82
2016-05-18T13:24:23.687Z,21.92
2016-05-18T13:25:23.236Z,21.94
2016-05-18T13:26:23.411Z,21.82
2016-05-18T13:27:23.351Z,21.79
2016-05-18T13:28:23.401Z,21.8
2016-05-18T13:29:23.075Z,21.88
2016-05-18T13:30:23.078Z,21.84
2016-05-18T13:31:23.111Z,21.83
2016-05-18T13:32:23.271Z,21.79
2016-05-18T13:33:23.539Z,21.75
2016-05-18T13:34:23.370Z,21.77
2016-05-18T13:35:23.498Z,21.82
2016-05-18T13:36:23.626Z,21.75
2016-05-18T13:37:23.347Z,21.8
2016-05-18T13:38:23.850Z,21.69
2016-05-18T13:39:23.649Z,21.67
2016-05-18T13:40:23.324Z,21.69
2016-05-18T13:41:23.592Z,21.71
2016-05-18T13:42:23.469Z,21.72
2016-05-18T13:43:23.722Z,21.74
2016-05-18T13:44:23.538Z,21.69
2016-05-18T13:45:23.572Z,21.69
2016-05-18T13:46:23.371Z,21.72
2016-05-18T13:47:23.030Z,21.69
2016-05-18T13:48:23.346Z,21.67
2016-05-18T13:49:23.379Z,21.67
2016-05-18T13:50:23.444Z,21.69
2016-05-18T13:51:23.588Z,21.64
2016-05-18T13:52:23.403Z,21.68
2016-05-18T13:53:23.437Z,21.71
2016-05-18T13:54:23.423Z,21.67
2016-05-18T13:55:23.458Z,21.68
2016-05-18T13:56:22.835Z,21.64
2016-05-18T13:57:23.495Z,21.62
2016-05-18T13:59:23.531Z,21.68
2016-05-18T14:00:23.393Z,21.72
2016-05-18T14:01:23.553Z,21.65
2016-05-18T14:02:23.617Z,21.69
2016-05-18T14:03:23.573Z,21.69
2016-05-18T14:04:23.436Z,21.74
2016-05-18T14:05:23.641Z,21.69
2016-05-18T14:06:23.612Z,21.67
2016-05-18T14:07:23.615Z,21.69
2016-05-18T14:08:23.650Z,21.68
2016-05-18T14:09:23.683Z,21.68
2016-05-18T14:10:23.669Z,21.67
2016-05-18T14:11:23.563Z,21.74
2016-05-18T14:12:23.723Z,21.72
2016-05-18T14:13:23.725Z,21.68
2016-05-18T14:14:23.743Z,21.62
2016-05-18T14:15:23.746Z,21.75
2016-05-18T14:16:23.780Z,21.8
2016-05-18T14:17:23.799Z,21.82
2016-05-18T14:18:23.817Z,21.8
2016-05-18T14:19:23.788Z,21.77
2016-05-18T14:20:23.807Z,21.79
2016-05-18T14:21:23.824Z,21.82
2016-05-18T14:22:24.249Z,21.88
2016-05-18T14:23:23.862Z,21.8
2016-05-18T14:24:23.879Z,21.82
2016-05-18T14:25:24.086Z,21.79
2016-05-18T14:26:23.901Z,21.77
2016-05-18T14:27:23.919Z,21.82
2016-05-18T14:28:23.938Z,21.86
2016-05-18T14:29:23.940Z,22
2016-05-18T14:30:23.802Z,21.96
2016-05-18T14:31:24.008Z,21.99
2016-05-18T14:32:23.526Z,22.05
2016-05-18T14:33:24.092Z,22
2016-05-18T14:34:24.017Z,22.1
2016-05-18T14:35:24.034Z,22.07
2016-05-18T14:36:24.053Z,22.12
2016-05-18T14:37:24.275Z,22.12
2016-05-18T14:38:23.964Z,22.2
2016-05-18T14:39:24.092Z,22.14
2016-05-18T14:40:24.111Z,22.2
2016-05-18T14:41:24.129Z,22.24
2016-05-18T14:42:24.194Z,22.27
2016-05-18T14:43:24.181Z,22.37
2016-05-18T14:44:24.214Z,22.33
2016-05-18T14:45:24.203Z,22.4
2016-05-18T14:46:24.127Z,22.4
2016-05-18T14:47:24.222Z,22.42
2016-05-18T14:48:24.085Z,22.43
2016-05-18T14:49:24.447Z,22.4
2016-05-18T14:50:24.277Z,22.45
2016-05-18T14:51:24.124Z,22.45
2016-05-18T14:52:24.299Z,22.46
2016-05-18T14:53:24.208Z,22.39
2016-05-18T14:54:24.195Z,22.36
2016-05-18T14:55:24.182Z,22.36
2016-05-18T14:56:24.763Z,22.36
2016-05-18T14:57:24.375Z,22.33
2016-05-18T14:58:24.424Z,22.4
2016-05-18T14:59:24.427Z,22.36
2016-05-18T15:00:24.445Z,22.35
2016-05-18T15:01:24.479Z,22.25
2016-05-18T15:02:24.669Z,22.31
2016-05-18T15:03:24.328Z,22.25
2016-05-18T15:04:24.691Z,22.37
2016-05-18T15:05:24.506Z,22.33
2016-05-18T15:06:24.509Z,22.33
2016-05-18T15:07:24.542Z,22.35
2016-05-18T15:09:24.563Z,22.43
2016-05-18T15:10:24.645Z,22.37
2016-05-18T15:11:24.834Z,22.43
2016-05-18T15:12:25.009Z,22.36
2016-05-18T15:13:24.840Z,22.46
2016-05-18T15:14:24.639Z,22.43
2016-05-18T15:15:24.704Z,22.43
2016-05-18T15:16:25.097Z,22.4
2016-05-18T15:17:38.961Z,22.36
2016-05-18T15:18:24.931Z,22.39
2016-05-18T15:19:24.622Z,22.36
2016-05-18T15:21:25.361Z,22.39
2016-05-18T15:22:25.005Z,22.28
2016-05-18T15:23:25.069Z,22.3
2016-05-18T15:24:24.635Z,22.37
2016-05-18T15:25:24.810Z,22.3
2016-05-18T15:26:25.032Z,22.3
2016-05-18T15:27:24.846Z,22.36
2016-05-18T15:28:24.865Z,22.21
2016-05-18T15:29:24.946Z,22.22
2016-05-18T15:30:24.885Z,22.3
2016-05-18T15:31:24.904Z,22.25
2016-05-18T15:32:24.906Z,22.2
2016-05-18T15:33:24.925Z,22.15
2016-05-18T15:34:25.178Z,22.14
2016-05-18T15:35:24.977Z,22.09
2016-05-18T15:36:24.995Z,22.1
2016-05-18T15:37:24.998Z,22
2016-05-18T15:38:25.000Z,21.96
2016-05-18T15:39:25.113Z,22
2016-05-18T15:40:24.881Z,21.9
2016-05-18T15:41:24.931Z,21.88
2016-05-18T15:42:25.261Z,21.8
2016-05-18T15:43:25.077Z,21.83
2016-05-18T15:44:24.939Z,21.8
2016-05-18T15:45:25.301Z,21.74
2016-05-18T15:46:25.131Z,21.75
2016-05-18T15:47:25.806Z,21.65
2016-05-18T15:48:25.340Z,21.59
2016-05-18T15:49:25.171Z,21.64
2016-05-18T15:50:25.377Z,21.5
2016-05-18T15:51:25.208Z,21.46
2016-05-18T15:52:24.944Z,21.42
2016-05-18T15:53:24.947Z,21.44
2016-05-18T15:54:25.247Z,21.44
2016-05-18T15:55:25.343Z,21.31
2016-05-18T15:56:25.206Z,21.32
2016-05-18T15:57:25.490Z,21.25
2016-05-18T15:58:25.321Z,21.27
2016-05-18T15:59:25.323Z,21.19
2016-05-18T16:00:25.357Z,21.16
2016-05-18T16:01:25.343Z,21.19
2016-05-18T16:02:32.160Z,21.19
2016-05-18T16:03:25.396Z,21.04
2016-05-18T16:04:25.430Z,21.17
2016-05-18T16:05:24.948Z,21.06
2016-05-18T16:06:39.701Z,20.99
2016-05-18T16:07:25.470Z,21.04
2016-05-18T16:08:25.753Z,21.04
2016-05-18T16:09:25.459Z,21.06
2016-05-18T16:10:25.478Z,20.99
2016-05-18T16:11:25.481Z,20.98
2016-05-18T16:12:25.498Z,20.98
2016-05-18T16:13:25.517Z,20.95
2016-05-18T16:14:25.567Z,20.97
2016-05-18T16:15:39.647Z,20.94
2016-05-18T16:17:25.106Z,20.91
2016-05-18T16:18:25.764Z,20.87
2016-05-18T16:19:25.627Z,20.88
2016-05-18T16:20:39.692Z,20.8
2016-05-18T16:21:25.633Z,20.87
2016-05-18T16:22:25.494Z,20.8
2016-05-18T16:24:26.077Z,20.67
2016-05-18T16:25:25.675Z,20.57
2016-05-18T16:26:25.693Z,20.43
2016-05-18T16:27:25.695Z,20.36
2016-05-18T16:28:25.729Z,20.33
2016-05-18T16:29:25.951Z,20.32
2016-05-18T16:30:25.891Z,20.31
2016-05-18T16:31:25.972Z,20.24
2016-05-18T16:32:25.756Z,20.24
2016-05-18T16:33:25.852Z,20.16
2016-05-18T16:34:26.043Z,20.06
2016-05-18T16:35:25.842Z,20.16
2016-05-18T16:36:25.938Z,20.03
2016-05-18T16:37:25.863Z,20.03
2016-05-18T16:38:25.896Z,19.96
2016-05-18T16:39:25.899Z,19.96
2016-05-18T16:40:26.074Z,19.86
2016-05-18T16:41:26.093Z,19.81
2016-05-18T16:42:25.767Z,19.83
2016-05-18T16:43:26.129Z,19.81
2016-05-18T16:44:26.132Z,19.76
2016-05-18T16:45:25.932Z,19.63
2016-05-18T16:46:25.964Z,19.63
2016-05-18T16:47:26.108Z,19.63
2016-05-18T16:48:26.595Z,19.5
2016-05-18T16:49:26.380Z,19.51
2016-05-18T16:50:26.350Z,19.41
2016-05-18T16:51:26.119Z,19.41
2016-05-18T16:52:26.044Z,19.48
2016-05-18T16:53:27.000Z,19.37
2016-05-18T16:54:26.049Z,19.29
2016-05-18T16:55:25.911Z,19.31
2016-05-18T16:56:26.070Z,19.19
2016-05-18T16:57:25.933Z,19.1
2016-05-18T16:58:26.154Z,19.18
2016-05-18T16:59:26.110Z,18.98
2016-05-18T17:00:26.315Z,18.99
2016-05-18T17:01:26.116Z,18.95
2016-05-18T17:02:27.571Z,18.88
2016-05-18T17:03:26.183Z,18.94
2016-05-18T17:04:26.201Z,18.91
2016-05-18T17:05:26.203Z,18.84
2016-05-18T17:06:26.426Z,18.88
2016-05-18T17:07:26.037Z,18.76
2016-05-18T17:08:26.212Z,18.75
2016-05-18T17:09:26.229Z,18.67
2016-05-18T17:10:26.249Z,18.72
2016-05-18T17:11:26.282Z,18.67
2016-05-18T17:12:26.284Z,18.67
2016-05-18T17:13:26.365Z,18.63
2016-05-18T17:14:26.151Z,18.62
2016-05-18T17:15:26.277Z,18.55
2016-05-18T17:16:26.312Z,18.52
2016-05-18T17:17:26.314Z,18.58
2016-05-18T17:18:26.192Z,18.58
2016-05-18T17:19:26.539Z,18.47
2016-05-18T17:20:26.041Z,18.44
2016-05-18T17:21:26.356Z,18.33
2016-05-18T17:22:26.219Z,18.35
2016-05-18T17:23:26.689Z,18.32
2016-05-18T17:24:26.427Z,18.36
2016-05-18T17:25:40.477Z,18.26
2016-05-18T17:26:26.275Z,18.2
2016-05-18T17:27:26.638Z,18.15
2016-05-18T17:28:26.453Z,18.17
2016-05-18T17:29:26.456Z,18.18
2016-05-18T17:30:26.458Z,18.17
2016-05-18T17:31:26.460Z,18.21
2016-05-18T17:32:26.746Z,18.18
2016-05-18T17:33:26.513Z,18.12
2016-05-18T17:34:36.357Z,18.15
2016-05-18T17:35:26.573Z,18.03
2016-05-18T17:36:26.572Z,18.1
2016-05-18T17:37:26.710Z,18.07
2016-05-18T17:38:26.739Z,18.02
2016-05-18T17:39:27.011Z,17.96
2016-05-18T17:40:26.749Z,17.97
2016-05-18T17:41:27.172Z,17.95
2016-05-18T17:42:27.065Z,17.92
2016-05-18T17:43:26.942Z,17.81
2016-05-18T17:44:26.754Z,17.79
2016-05-18T17:45:26.997Z,17.79
2016-05-18T17:46:26.770Z,17.72
2016-05-18T17:47:26.951Z,17.78
2016-05-18T17:48:26.505Z,17.78
2016-05-18T17:49:52.232Z,17.72
2016-05-18T17:50:26.986Z,17.7
2016-05-18T17:51:27.224Z,17.7
2016-05-18T17:52:27.417Z,17.7
2016-05-18T17:53:27.251Z,17.62
2016-05-18T17:54:27.035Z,17.56
2016-05-18T17:55:27.038Z,17.52
2016-05-18T17:56:27.215Z,17.49
2016-05-18T17:57:27.655Z,17.64
2016-05-18T17:58:27.377Z,17.63
2016-05-18T17:59:27.536Z,17.58
2016-05-18T18:00:27.931Z,17.51
2016-05-18T18:01:27.340Z,17.55
2016-05-18T18:02:27.436Z,17.49
2016-05-18T18:03:27.174Z,17.48
2016-05-18T18:04:27.489Z,17.44
2016-05-18T18:05:27.368Z,17.46
2016-05-18T18:06:27.307Z,17.41
2016-05-18T18:07:27.701Z,17.38
2016-05-18T18:08:27.453Z,17.37
2016-05-18T18:09:27.441Z,17.4
2016-05-18T18:10:27.224Z,17.41
2016-05-18T18:11:27.211Z,17.36
2016-05-18T18:12:27.245Z,17.33
2016-05-18T18:13:27.076Z,17.37
2016-05-18T18:14:27.079Z,17.33
2016-05-18T18:15:27.269Z,17.19
2016-05-18T18:16:27.240Z,17.21
2016-05-18T18:17:27.102Z,17.23
2016-05-18T18:18:27.481Z,17.23
2016-05-18T18:19:27.498Z,17.18
2016-05-18T18:20:27.330Z,17.16
2016-05-18T18:21:27.520Z,17.08
2016-05-18T18:22:27.163Z,17.16
2016-05-18T18:23:27.353Z,17.14
2016-05-18T18:24:27.371Z,17.15
2016-05-18T18:25:27.218Z,17.03
2016-05-18T18:26:27.752Z,16.97
2016-05-18T18:27:27.395Z,16.98
2016-05-18T18:28:27.366Z,16.97
2016-05-18T18:29:27.244Z,16.91
2016-05-18T18:30:27.403Z,17.04
2016-05-18T18:31:27.421Z,16.91
2016-05-18T18:32:27.565Z,16.96
2016-05-18T18:33:27.536Z,16.91
2016-05-18T18:34:27.461Z,16.93
2016-05-18T18:35:27.745Z,16.81
2016-05-18T18:36:27.731Z,16.82
2016-05-18T18:37:27.890Z,16.81
2016-05-18T18:38:27.471Z,16.75
2016-05-18T18:39:28.146Z,16.76
2016-05-18T18:40:27.633Z,16.7
2016-05-18T18:41:41.823Z,16.73
2016-05-18T18:42:27.685Z,16.75
2016-05-18T18:43:27.907Z,16.75
2016-05-18T18:44:27.784Z,16.7
2016-05-18T18:45:27.725Z,16.67
2016-05-18T18:46:41.696Z,16.68
2016-05-18T18:47:27.730Z,16.61
2016-05-18T18:48:27.999Z,16.58
2016-05-18T18:49:27.985Z,16.56
2016-05-18T18:50:27.801Z,16.64
2016-05-18T18:51:27.772Z,16.6
2016-05-18T18:52:27.758Z,16.53
2016-05-18T18:53:27.840Z,16.58
2016-05-18T18:54:27.796Z,16.46
2016-05-18T18:55:27.814Z,16.56
2016-05-18T18:56:27.676Z,16.53
2016-05-18T18:57:28.007Z,16.56
2016-05-18T18:58:27.932Z,16.5
2016-05-18T18:59:41.935Z,16.52
2016-05-18T19:00:28.249Z,16.5
2016-05-18T19:01:28.018Z,16.42
2016-05-18T19:02:28.317Z,16.42